sensor_id;sensor_type;location;lat;lon;timestamp;P1;durP1;ratioP1;P2;durP2;ratioP2
63434;SDS011;68814;50.872;5.306;2023-10-09T00:00:33;13.52;;;7.05;;
63434;SDS011;68814;50.872;5.306;2023-10-09T00:03:05;12.77;;;5.73;;
63434;SDS011;68814;50.872;5.306;2023-10-09T00:05:32;12.52;;;6.40;;
63434;SDS011;68814;50.872;5.306;2023-10-09T00:08:11;13.38;;;6.93;;
63434;SDS011;68814;50.872;5.306;2023-10-09T00:10:56;10.52;;;5.80;;
63434;SDS011;68814;50.872;5.306;2023-10-09T00:13:45;17.20;;;6.72;;
63434;SDS011;68814;50.872;5.306;2023-10-09T00:16:16;14.77;;;6.25;;
63434;SDS011;68814;50.872;5.306;2023-10-09T00:18:47;10.90;;;6.03;;
63434;SDS011;68814;50.872;5.306;2023-10-09T00:21:16;10.57;;;6.88;;
63434;SDS011;68814;50.872;5.306;2023-10-09T00:23:45;12.52;;;6.18;;
63434;SDS011;68814;50.872;5.306;2023-10-09T00:26:24;11.18;;;6.78;;
63434;SDS011;68814;50.872;5.306;2023-10-09T00:29:08;12.80;;;6.45;;
63434;SDS011;68814;50.872;5.306;2023-10-09T00:31:40;16.30;;;6.55;;
63434;SDS011;68814;50.872;5.306;2023-10-09T00:34:16;19.67;;;6.15;;
63434;SDS011;68814;50.872;5.306;2023-10-09T00:36:45;12.90;;;6.18;;
63434;SDS011;68814;50.872;5.306;2023-10-09T00:39:28;9.48;;;5.75;;
63434;SDS011;68814;50.872;5.306;2023-10-09T00:42:08;12.80;;;5.55;;
63434;SDS011;68814;50.872;5.306;2023-10-09T00:44:39;15.05;;;5.95;;
63434;SDS011;68814;50.872;5.306;2023-10-09T00:47:12;13.85;;;5.72;;
63434;SDS011;68814;50.872;5.306;2023-10-09T00:50:00;14.50;;;5.70;;
63434;SDS011;68814;50.872;5.306;2023-10-09T00:52:44;13.65;;;6.30;;
63434;SDS011;68814;50.872;5.306;2023-10-09T00:55:18;15.52;;;7.00;;
63434;SDS011;68814;50.872;5.306;2023-10-09T00:58:01;17.42;;;7.30;;
63434;SDS011;68814;50.872;5.306;2023-10-09T01:00:30;15.55;;;7.43;;
63434;SDS011;68814;50.872;5.306;2023-10-09T01:03:08;14.98;;;7.72;;
63434;SDS011;68814;50.872;5.306;2023-10-09T01:05:54;14.60;;;7.60;;
63434;SDS011;68814;50.872;5.306;2023-10-09T01:08:39;14.25;;;7.63;;
63434;SDS011;68814;50.872;5.306;2023-10-09T01:11:05;15.23;;;7.78;;
63434;SDS011;68814;50.872;5.306;2023-10-09T01:13:46;13.50;;;7.38;;
63434;SDS011;68814;50.872;5.306;2023-10-09T01:16:13;13.38;;;6.97;;
63434;SDS011;68814;50.872;5.306;2023-10-09T01:21:09;14.27;;;7.63;;
63434;SDS011;68814;50.872;5.306;2023-10-09T01:23:40;16.92;;;7.47;;
63434;SDS011;68814;50.872;5.306;2023-10-09T01:26:25;14.13;;;7.63;;
63434;SDS011;68814;50.872;5.306;2023-10-09T01:28:51;11.20;;;6.95;;
63434;SDS011;68814;50.872;5.306;2023-10-09T01:31:23;18.05;;;7.78;;
63434;SDS011;68814;50.872;5.306;2023-10-09T01:33:51;16.27;;;7.47;;
63434;SDS011;68814;50.872;5.306;2023-10-09T01:36:18;15.98;;;8.15;;
63434;SDS011;68814;50.872;5.306;2023-10-09T01:38:59;14.55;;;7.25;;
63434;SDS011;68814;50.872;5.306;2023-10-09T01:41:26;11.05;;;6.68;;
63434;SDS011;68814;50.872;5.306;2023-10-09T01:43:52;12.88;;;7.38;;
63434;SDS011;68814;50.872;5.306;2023-10-09T01:46:25;11.50;;;7.38;;
63434;SDS011;68814;50.872;5.306;2023-10-09T01:48:51;15.23;;;7.40;;
63434;SDS011;68814;50.872;5.306;2023-10-09T01:51:18;12.18;;;7.00;;
63434;SDS011;68814;50.872;5.306;2023-10-09T01:53:45;15.30;;;7.72;;
63434;SDS011;68814;50.872;5.306;2023-10-09T01:56:19;16.08;;;7.40;;
63434;SDS011;68814;50.872;5.306;2023-10-09T01:58:45;10.52;;;6.53;;
63434;SDS011;68814;50.872;5.306;2023-10-09T02:01:12;16.40;;;7.53;;
63434;SDS011;68814;50.872;5.306;2023-10-09T02:03:40;15.27;;;8.15;;
63434;SDS011;68814;50.872;5.306;2023-10-09T02:06:07;14.30;;;7.57;;
63434;SDS011;68814;50.872;5.306;2023-10-09T02:08:54;14.77;;;7.75;;
63434;SDS011;68814;50.872;5.306;2023-10-09T02:11:21;16.35;;;7.45;;
63434;SDS011;68814;50.872;5.306;2023-10-09T02:14:01;18.75;;;7.93;;
63434;SDS011;68814;50.872;5.306;2023-10-09T02:16:46;23.05;;;8.50;;
63434;SDS011;68814;50.872;5.306;2023-10-09T02:19:28;11.68;;;6.63;;
63434;SDS011;68814;50.872;5.306;2023-10-09T02:21:58;15.73;;;7.50;;
63434;SDS011;68814;50.872;5.306;2023-10-09T02:24:26;12.75;;;6.95;;
63434;SDS011;68814;50.872;5.306;2023-10-09T02:27:07;16.00;;;7.00;;
63434;SDS011;68814;50.872;5.306;2023-10-09T02:29:34;16.38;;;7.70;;
63434;SDS011;68814;50.872;5.306;2023-10-09T02:32:03;14.82;;;6.70;;
63434;SDS011;68814;50.872;5.306;2023-10-09T02:34:39;14.25;;;6.70;;
63434;SDS011;68814;50.872;5.306;2023-10-09T02:37:05;15.63;;;7.63;;
63434;SDS011;68814;50.872;5.306;2023-10-09T02:39:32;10.88;;;6.75;;
63434;SDS011;68814;50.872;5.306;2023-10-09T02:42:08;15.30;;;7.15;;
63434;SDS011;68814;50.872;5.306;2023-10-09T02:44:37;13.20;;;7.35;;
63434;SDS011;68814;50.872;5.306;2023-10-09T02:47:11;12.52;;;7.28;;
63434;SDS011;68814;50.872;5.306;2023-10-09T02:49:43;14.98;;;7.30;;
63434;SDS011;68814;50.872;5.306;2023-10-09T02:52:08;15.10;;;7.50;;
63434;SDS011;68814;50.872;5.306;2023-10-09T02:54:42;13.98;;;7.32;;
63434;SDS011;68814;50.872;5.306;2023-10-09T02:57:11;16.48;;;8.20;;
63434;SDS011;68814;50.872;5.306;2023-10-09T03:00:00;15.75;;;7.03;;
63434;SDS011;68814;50.872;5.306;2023-10-09T03:02:26;13.32;;;7.22;;
63434;SDS011;68814;50.872;5.306;2023-10-09T03:04:51;16.20;;;7.97;;
63434;SDS011;68814;50.872;5.306;2023-10-09T03:07:20;13.70;;;7.55;;
63434;SDS011;68814;50.872;5.306;2023-10-09T03:09:48;12.18;;;7.00;;
63434;SDS011;68814;50.872;5.306;2023-10-09T03:12:15;15.15;;;7.57;;
63434;SDS011;68814;50.872;5.306;2023-10-09T03:14:43;14.18;;;8.20;;
63434;SDS011;68814;50.872;5.306;2023-10-09T03:17:09;12.45;;;7.50;;
63434;SDS011;68814;50.872;5.306;2023-10-09T03:19:36;15.75;;;8.10;;
63434;SDS011;68814;50.872;5.306;2023-10-09T03:22:03;19.02;;;7.97;;
63434;SDS011;68814;50.872;5.306;2023-10-09T03:24:29;14.30;;;7.97;;
63434;SDS011;68814;50.872;5.306;2023-10-09T03:26:58;13.85;;;8.05;;
63434;SDS011;68814;50.872;5.306;2023-10-09T03:29:24;15.18;;;7.28;;
63434;SDS011;68814;50.872;5.306;2023-10-09T03:31:52;14.75;;;7.85;;
63434;SDS011;68814;50.872;5.306;2023-10-09T03:34:19;17.48;;;8.00;;
63434;SDS011;68814;50.872;5.306;2023-10-09T03:36:45;16.80;;;7.85;;
63434;SDS011;68814;50.872;5.306;2023-10-09T03:39:12;18.10;;;7.55;;
63434;SDS011;68814;50.872;5.306;2023-10-09T03:41:57;17.30;;;8.43;;
63434;SDS011;68814;50.872;5.306;2023-10-09T03:44:33;15.85;;;7.18;;
63434;SDS011;68814;50.872;5.306;2023-10-09T03:47:00;18.52;;;7.28;;
63434;SDS011;68814;50.872;5.306;2023-10-09T03:49:30;16.20;;;8.15;;
63434;SDS011;68814;50.872;5.306;2023-10-09T03:51:57;17.27;;;8.40;;
63434;SDS011;68814;50.872;5.306;2023-10-09T03:54:24;16.70;;;7.88;;
63434;SDS011;68814;50.872;5.306;2023-10-09T03:56:50;10.52;;;7.30;;
63434;SDS011;68814;50.872;5.306;2023-10-09T03:59:18;18.20;;;7.85;;
63434;SDS011;68814;50.872;5.306;2023-10-09T04:01:45;18.02;;;8.73;;
63434;SDS011;68814;50.872;5.306;2023-10-09T04:04:12;18.70;;;8.35;;
63434;SDS011;68814;50.872;5.306;2023-10-09T04:06:39;17.27;;;8.80;;
63434;SDS011;68814;50.872;5.306;2023-10-09T04:09:08;15.50;;;8.23;;
63434;SDS011;68814;50.872;5.306;2023-10-09T04:11:47;15.57;;;8.07;;
63434;SDS011;68814;50.872;5.306;2023-10-09T04:14:22;18.48;;;8.32;;
63434;SDS011;68814;50.872;5.306;2023-10-09T04:17:01;17.83;;;8.07;;
63434;SDS011;68814;50.872;5.306;2023-10-09T04:19:45;16.52;;;8.52;;
63434;SDS011;68814;50.872;5.306;2023-10-09T04:22:24;17.75;;;8.30;;
63434;SDS011;68814;50.872;5.306;2023-10-09T04:24:52;17.17;;;8.80;;
63434;SDS011;68814;50.872;5.306;2023-10-09T04:27:18;17.08;;;8.98;;
63434;SDS011;68814;50.872;5.306;2023-10-09T04:29:51;18.45;;;9.20;;
63434;SDS011;68814;50.872;5.306;2023-10-09T04:32:19;15.85;;;8.63;;
63434;SDS011;68814;50.872;5.306;2023-10-09T04:34:49;20.27;;;8.98;;
63434;SDS011;68814;50.872;5.306;2023-10-09T04:37:23;11.98;;;7.97;;
63434;SDS011;68814;50.872;5.306;2023-10-09T04:40:04;17.60;;;9.23;;
63434;SDS011;68814;50.872;5.306;2023-10-09T04:42:37;15.93;;;8.70;;
63434;SDS011;68814;50.872;5.306;2023-10-09T04:45:04;18.45;;;9.43;;
63434;SDS011;68814;50.872;5.306;2023-10-09T04:47:31;16.02;;;8.57;;
63434;SDS011;68814;50.872;5.306;2023-10-09T04:50:05;15.93;;;8.05;;
63434;SDS011;68814;50.872;5.306;2023-10-09T04:52:40;15.50;;;8.55;;
63434;SDS011;68814;50.872;5.306;2023-10-09T04:55:06;16.38;;;8.23;;
63434;SDS011;68814;50.872;5.306;2023-10-09T04:57:36;13.57;;;8.68;;
63434;SDS011;68814;50.872;5.306;2023-10-09T05:00:08;19.47;;;8.00;;
63434;SDS011;68814;50.872;5.306;2023-10-09T05:03:07;14.63;;;8.00;;
63434;SDS011;68814;50.872;5.306;2023-10-09T05:05:52;17.90;;;8.55;;
63434;SDS011;68814;50.872;5.306;2023-10-09T05:08:44;15.32;;;7.38;;
63434;SDS011;68814;50.872;5.306;2023-10-09T05:11:11;16.90;;;7.80;;
63434;SDS011;68814;50.872;5.306;2023-10-09T05:13:55;14.30;;;8.45;;
63434;SDS011;68814;50.872;5.306;2023-10-09T05:16:36;16.50;;;7.97;;
63434;SDS011;68814;50.872;5.306;2023-10-09T05:19:16;16.40;;;8.35;;
63434;SDS011;68814;50.872;5.306;2023-10-09T05:21:54;15.45;;;8.20;;
63434;SDS011;68814;50.872;5.306;2023-10-09T05:24:23;16.63;;;8.80;;
63434;SDS011;68814;50.872;5.306;2023-10-09T05:26:51;16.35;;;8.68;;
63434;SDS011;68814;50.872;5.306;2023-10-09T05:29:18;16.27;;;9.15;;
63434;SDS011;68814;50.872;5.306;2023-10-09T05:31:47;16.70;;;9.20;;
63434;SDS011;68814;50.872;5.306;2023-10-09T05:34:32;18.10;;;8.68;;
63434;SDS011;68814;50.872;5.306;2023-10-09T05:37:05;19.85;;;9.05;;
63434;SDS011;68814;50.872;5.306;2023-10-09T05:39:48;15.40;;;8.68;;
63434;SDS011;68814;50.872;5.306;2023-10-09T05:42:27;17.35;;;9.10;;
63434;SDS011;68814;50.872;5.306;2023-10-09T05:45:07;17.30;;;8.07;;
63434;SDS011;68814;50.872;5.306;2023-10-09T05:47:46;17.88;;;8.70;;
63434;SDS011;68814;50.872;5.306;2023-10-09T05:50:23;17.58;;;9.30;;
63434;SDS011;68814;50.872;5.306;2023-10-09T05:52:51;23.85;;;9.40;;
63434;SDS011;68814;50.872;5.306;2023-10-09T05:55:17;14.10;;;8.70;;
63434;SDS011;68814;50.872;5.306;2023-10-09T05:57:46;17.08;;;8.95;;
63434;SDS011;68814;50.872;5.306;2023-10-09T06:00:21;17.83;;;9.23;;
63434;SDS011;68814;50.872;5.306;2023-10-09T06:03:05;15.57;;;8.95;;
63434;SDS011;68814;50.872;5.306;2023-10-09T06:05:46;22.45;;;9.60;;
63434;SDS011;68814;50.872;5.306;2023-10-09T06:08:27;18.08;;;9.60;;
63434;SDS011;68814;50.872;5.306;2023-10-09T06:11:09;19.60;;;8.27;;
63434;SDS011;68814;50.872;5.306;2023-10-09T06:14:15;16.83;;;8.98;;
63434;SDS011;68814;50.872;5.306;2023-10-09T06:17:02;18.40;;;8.93;;
63434;SDS011;68814;50.872;5.306;2023-10-09T06:19:27;17.20;;;9.20;;
63434;SDS011;68814;50.872;5.306;2023-10-09T06:21:57;14.27;;;8.88;;
63434;SDS011;68814;50.872;5.306;2023-10-09T06:24:42;13.80;;;8.15;;
63434;SDS011;68814;50.872;5.306;2023-10-09T06:27:19;16.92;;;9.63;;
63434;SDS011;68814;50.872;5.306;2023-10-09T06:29:50;21.70;;;10.30;;
63434;SDS011;68814;50.872;5.306;2023-10-09T06:32:17;17.23;;;9.30;;
63434;SDS011;68814;50.872;5.306;2023-10-09T06:34:46;16.90;;;8.63;;
63434;SDS011;68814;50.872;5.306;2023-10-09T06:37:39;22.33;;;9.63;;
63434;SDS011;68814;50.872;5.306;2023-10-09T06:40:24;19.35;;;9.77;;
63434;SDS011;68814;50.872;5.306;2023-10-09T06:43:09;20.25;;;9.65;;
63434;SDS011;68814;50.872;5.306;2023-10-09T06:45:47;19.67;;;9.57;;
63434;SDS011;68814;50.872;5.306;2023-10-09T06:48:20;20.80;;;9.60;;
63434;SDS011;68814;50.872;5.306;2023-10-09T06:51:16;19.80;;;9.93;;
63434;SDS011;68814;50.872;5.306;2023-10-09T06:54:00;19.33;;;9.48;;
63434;SDS011;68814;50.872;5.306;2023-10-09T06:56:45;21.10;;;10.35;;
63434;SDS011;68814;50.872;5.306;2023-10-09T06:59:34;27.52;;;10.38;;
63434;SDS011;68814;50.872;5.306;2023-10-09T07:02:29;18.25;;;9.77;;
63434;SDS011;68814;50.872;5.306;2023-10-09T07:05:01;17.80;;;9.10;;
63434;SDS011;68814;50.872;5.306;2023-10-09T07:07:35;21.67;;;9.23;;
63434;SDS011;68814;50.872;5.306;2023-10-09T07:10:12;18.77;;;10.02;;
63434;SDS011;68814;50.872;5.306;2023-10-09T07:12:57;17.60;;;10.57;;
63434;SDS011;68814;50.872;5.306;2023-10-09T07:15:25;19.63;;;9.95;;
63434;SDS011;68814;50.872;5.306;2023-10-09T07:18:09;19.25;;;10.32;;
63434;SDS011;68814;50.872;5.306;2023-10-09T07:20:45;20.63;;;10.68;;
63434;SDS011;68814;50.872;5.306;2023-10-09T07:23:24;19.13;;;9.80;;
63434;SDS011;68814;50.872;5.306;2023-10-09T07:26:00;18.92;;;11.07;;
63434;SDS011;68814;50.872;5.306;2023-10-09T07:28:42;33.50;;;11.45;;
63434;SDS011;68814;50.872;5.306;2023-10-09T07:31:08;24.80;;;10.70;;
63434;SDS011;68814;50.872;5.306;2023-10-09T07:33:49;20.88;;;10.93;;
63434;SDS011;68814;50.872;5.306;2023-10-09T07:36:22;21.87;;;11.87;;
63434;SDS011;68814;50.872;5.306;2023-10-09T07:39:02;20.90;;;10.38;;
63434;SDS011;68814;50.872;5.306;2023-10-09T07:41:41;22.08;;;11.45;;
63434;SDS011;68814;50.872;5.306;2023-10-09T07:44:26;23.75;;;11.43;;
63434;SDS011;68814;50.872;5.306;2023-10-09T07:47:04;20.33;;;11.50;;
63434;SDS011;68814;50.872;5.306;2023-10-09T07:49:42;22.05;;;10.70;;
63434;SDS011;68814;50.872;5.306;2023-10-09T07:52:13;18.50;;;10.18;;
63434;SDS011;68814;50.872;5.306;2023-10-09T07:54:40;26.77;;;11.85;;
63434;SDS011;68814;50.872;5.306;2023-10-09T07:57:15;25.02;;;12.15;;
63434;SDS011;68814;50.872;5.306;2023-10-09T07:59:42;19.27;;;10.50;;
63434;SDS011;68814;50.872;5.306;2023-10-09T08:02:28;26.05;;;11.05;;
63434;SDS011;68814;50.872;5.306;2023-10-09T08:05:00;20.13;;;11.20;;
63434;SDS011;68814;50.872;5.306;2023-10-09T08:07:43;20.92;;;10.52;;
63434;SDS011;68814;50.872;5.306;2023-10-09T08:10:19;22.02;;;10.85;;
63434;SDS011;68814;50.872;5.306;2023-10-09T08:12:45;22.75;;;11.23;;
63434;SDS011;68814;50.872;5.306;2023-10-09T08:15:14;20.88;;;10.75;;
63434;SDS011;68814;50.872;5.306;2023-10-09T08:17:50;21.05;;;10.95;;
63434;SDS011;68814;50.872;5.306;2023-10-09T08:20:37;27.63;;;11.43;;
63434;SDS011;68814;50.872;5.306;2023-10-09T08:23:36;19.73;;;11.07;;
63434;SDS011;68814;50.872;5.306;2023-10-09T08:26:36;23.80;;;11.77;;
63434;SDS011;68814;50.872;5.306;2023-10-09T08:29:12;24.67;;;11.85;;
63434;SDS011;68814;50.872;5.306;2023-10-09T08:31:42;22.50;;;10.23;;
63434;SDS011;68814;50.872;5.306;2023-10-09T08:34:14;20.15;;;10.90;;
63434;SDS011;68814;50.872;5.306;2023-10-09T08:36:49;20.25;;;11.60;;
63434;SDS011;68814;50.872;5.306;2023-10-09T08:39:18;19.27;;;10.77;;
63434;SDS011;68814;50.872;5.306;2023-10-09T08:41:54;21.65;;;10.68;;
63434;SDS011;68814;50.872;5.306;2023-10-09T08:44:23;21.63;;;11.13;;
63434;SDS011;68814;50.872;5.306;2023-10-09T08:46:52;24.05;;;9.77;;
63434;SDS011;68814;50.872;5.306;2023-10-09T08:49:19;22.27;;;10.70;;
63434;SDS011;68814;50.872;5.306;2023-10-09T08:52:05;22.02;;;9.82;;
63434;SDS011;68814;50.872;5.306;2023-10-09T08:54:31;22.33;;;10.57;;
63434;SDS011;68814;50.872;5.306;2023-10-09T08:57:00;20.15;;;10.43;;
63434;SDS011;68814;50.872;5.306;2023-10-09T08:59:29;19.42;;;9.50;;
63434;SDS011;68814;50.872;5.306;2023-10-09T09:01:55;20.40;;;10.15;;
63434;SDS011;68814;50.872;5.306;2023-10-09T09:04:36;20.98;;;10.52;;
63434;SDS011;68814;50.872;5.306;2023-10-09T09:07:06;25.00;;;11.10;;
63434;SDS011;68814;50.872;5.306;2023-10-09T09:09:57;18.08;;;10.00;;
63434;SDS011;68814;50.872;5.306;2023-10-09T09:12:28;17.13;;;9.77;;
63434;SDS011;68814;50.872;5.306;2023-10-09T09:15:02;20.55;;;9.15;;
63434;SDS011;68814;50.872;5.306;2023-10-09T09:17:32;22.40;;;10.90;;
63434;SDS011;68814;50.872;5.306;2023-10-09T09:20:19;17.15;;;9.63;;
63434;SDS011;68814;50.872;5.306;2023-10-09T09:25:22;19.77;;;9.55;;
63434;SDS011;68814;50.872;5.306;2023-10-09T09:27:58;16.30;;;9.68;;
63434;SDS011;68814;50.872;5.306;2023-10-09T09:30:53;19.33;;;9.85;;
63434;SDS011;68814;50.872;5.306;2023-10-09T09:43:50;19.05;;;9.48;;
63434;SDS011;68814;50.872;5.306;2023-10-09T10:21:56;13.95;;;7.93;;
63434;SDS011;68814;50.872;5.306;2023-10-09T10:37:45;13.70;;;7.47;;
63434;SDS011;68814;50.872;5.306;2023-10-09T10:40:26;11.13;;;5.95;;
63434;SDS011;68814;50.872;5.306;2023-10-09T10:43:16;16.05;;;6.93;;
63434;SDS011;68814;50.872;5.306;2023-10-09T10:46:05;13.05;;;6.25;;
63434;SDS011;68814;50.872;5.306;2023-10-09T10:48:51;12.90;;;6.90;;
63434;SDS011;68814;50.872;5.306;2023-10-09T10:53:59;15.50;;;6.88;;
63434;SDS011;68814;50.872;5.306;2023-10-09T10:56:46;12.38;;;6.40;;
63434;SDS011;68814;50.872;5.306;2023-10-09T10:59:16;17.50;;;7.13;;
63434;SDS011;68814;50.872;5.306;2023-10-09T11:01:51;13.20;;;6.70;;
63434;SDS011;68814;50.872;5.306;2023-10-09T11:04:24;12.10;;;5.90;;
63434;SDS011;68814;50.872;5.306;2023-10-09T11:06:58;16.05;;;6.15;;
63434;SDS011;68814;50.872;5.306;2023-10-09T11:09:45;15.95;;;6.57;;
63434;SDS011;68814;50.872;5.306;2023-10-09T11:12:52;16.65;;;8.25;;
63434;SDS011;68814;50.872;5.306;2023-10-09T11:15:16;12.50;;;6.82;;
63434;SDS011;68814;50.872;5.306;2023-10-09T11:20:37;13.43;;;5.93;;
63434;SDS011;68814;50.872;5.306;2023-10-09T11:23:04;12.07;;;6.40;;
63434;SDS011;68814;50.872;5.306;2023-10-09T11:25:43;12.00;;;5.93;;
63434;SDS011;68814;50.872;5.306;2023-10-09T11:28:20;16.30;;;5.93;;
63434;SDS011;68814;50.872;5.306;2023-10-09T11:30:54;13.98;;;6.57;;
63434;SDS011;68814;50.872;5.306;2023-10-09T11:33:46;14.30;;;6.68;;
63434;SDS011;68814;50.872;5.306;2023-10-09T11:36:19;12.40;;;6.50;;
63434;SDS011;68814;50.872;5.306;2023-10-09T11:39:06;13.18;;;6.18;;
63434;SDS011;68814;50.872;5.306;2023-10-09T11:42:06;11.43;;;6.13;;
63434;SDS011;68814;50.872;5.306;2023-10-09T11:44:39;10.60;;;5.80;;
63434;SDS011;68814;50.872;5.306;2023-10-09T11:47:10;19.40;;;6.88;;
63434;SDS011;68814;50.872;5.306;2023-10-09T11:52:31;20.17;;;7.00;;
63434;SDS011;68814;50.872;5.306;2023-10-09T11:55:01;15.50;;;7.05;;
63434;SDS011;68814;50.872;5.306;2023-10-09T11:57:28;9.85;;;5.57;;
63434;SDS011;68814;50.872;5.306;2023-10-09T11:59:58;11.43;;;6.55;;
63434;SDS011;68814;50.872;5.306;2023-10-09T12:02:25;12.23;;;6.30;;
63434;SDS011;68814;50.872;5.306;2023-10-09T12:04:51;10.30;;;5.95;;
63434;SDS011;68814;50.872;5.306;2023-10-09T12:07:20;13.85;;;6.68;;
63434;SDS011;68814;50.872;5.306;2023-10-09T12:09:47;13.65;;;6.50;;
63434;SDS011;68814;50.872;5.306;2023-10-09T12:12:13;12.27;;;6.45;;
63434;SDS011;68814;50.872;5.306;2023-10-09T12:14:39;11.27;;;6.32;;
63434;SDS011;68814;50.872;5.306;2023-10-09T12:17:07;15.15;;;6.10;;
63434;SDS011;68814;50.872;5.306;2023-10-09T12:22:00;13.10;;;6.20;;
63434;SDS011;68814;50.872;5.306;2023-10-09T12:24:29;13.00;;;5.85;;
63434;SDS011;68814;50.872;5.306;2023-10-09T12:26:55;13.98;;;5.97;;
63434;SDS011;68814;50.872;5.306;2023-10-09T12:29:21;11.75;;;5.80;;
63434;SDS011;68814;50.872;5.306;2023-10-09T12:31:48;12.68;;;6.30;;
63434;SDS011;68814;50.872;5.306;2023-10-09T12:34:23;16.63;;;6.35;;
63434;SDS011;68814;50.872;5.306;2023-10-09T12:36:51;12.07;;;6.13;;
63434;SDS011;68814;50.872;5.306;2023-10-09T12:39:23;15.07;;;5.82;;
63434;SDS011;68814;50.872;5.306;2023-10-09T12:41:52;11.68;;;5.88;;
63434;SDS011;68814;50.872;5.306;2023-10-09T12:44:23;11.95;;;6.43;;
63434;SDS011;68814;50.872;5.306;2023-10-09T12:46:52;12.68;;;5.93;;
63434;SDS011;68814;50.872;5.306;2023-10-09T12:49:18;11.30;;;5.93;;
63434;SDS011;68814;50.872;5.306;2023-10-09T12:51:49;12.68;;;6.45;;
63434;SDS011;68814;50.872;5.306;2023-10-09T12:54:17;12.43;;;6.53;;
63434;SDS011;68814;50.872;5.306;2023-10-09T12:56:54;13.43;;;5.63;;
63434;SDS011;68814;50.872;5.306;2023-10-09T12:59:20;10.77;;;5.72;;
63434;SDS011;68814;50.872;5.306;2023-10-09T13:01:46;12.48;;;5.43;;
63434;SDS011;68814;50.872;5.306;2023-10-09T13:04:18;11.63;;;5.50;;
63434;SDS011;68814;50.872;5.306;2023-10-09T13:06:47;11.98;;;5.75;;
63434;SDS011;68814;50.872;5.306;2023-10-09T13:09:17;11.02;;;5.80;;
63434;SDS011;68814;50.872;5.306;2023-10-09T13:12:00;9.60;;;4.90;;
63434;SDS011;68814;50.872;5.306;2023-10-09T13:14:31;15.25;;;6.28;;
63434;SDS011;68814;50.872;5.306;2023-10-09T13:16:59;12.18;;;5.22;;
63434;SDS011;68814;50.872;5.306;2023-10-09T13:19:25;12.10;;;6.38;;
63434;SDS011;68814;50.872;5.306;2023-10-09T13:21:51;10.68;;;5.65;;
63434;SDS011;68814;50.872;5.306;2023-10-09T13:24:16;10.73;;;6.03;;
63434;SDS011;68814;50.872;5.306;2023-10-09T13:26:43;12.55;;;6.28;;
63434;SDS011;68814;50.872;5.306;2023-10-09T13:29:16;11.60;;;5.97;;
63434;SDS011;68814;50.872;5.306;2023-10-09T13:31:47;13.48;;;6.57;;
63434;SDS011;68814;50.872;5.306;2023-10-09T13:34:16;11.68;;;6.15;;
63434;SDS011;68814;50.872;5.306;2023-10-09T13:36:41;12.18;;;6.38;;
63434;SDS011;68814;50.872;5.306;2023-10-09T13:39:18;12.13;;;5.75;;
63434;SDS011;68814;50.872;5.306;2023-10-09T13:41:52;13.50;;;6.28;;
63434;SDS011;68814;50.872;5.306;2023-10-09T13:44:32;13.18;;;6.10;;
63434;SDS011;68814;50.872;5.306;2023-10-09T13:47:00;17.80;;;6.07;;
63434;SDS011;68814;50.872;5.306;2023-10-09T13:49:27;13.07;;;5.90;;
63434;SDS011;68814;50.872;5.306;2023-10-09T13:52:00;14.45;;;5.85;;
63434;SDS011;68814;50.872;5.306;2023-10-09T13:54:27;18.20;;;6.40;;
63434;SDS011;68814;50.872;5.306;2023-10-09T13:56:57;10.45;;;6.15;;
63434;SDS011;68814;50.872;5.306;2023-10-09T13:59:23;10.63;;;5.22;;
63434;SDS011;68814;50.872;5.306;2023-10-09T14:01:52;12.50;;;6.13;;
63434;SDS011;68814;50.872;5.306;2023-10-09T14:04:24;15.60;;;5.50;;
63434;SDS011;68814;50.872;5.306;2023-10-09T14:06:53;10.30;;;5.85;;
63434;SDS011;68814;50.872;5.306;2023-10-09T14:09:25;14.32;;;6.47;;
63434;SDS011;68814;50.872;5.306;2023-10-09T14:12:03;14.80;;;6.75;;
63434;SDS011;68814;50.872;5.306;2023-10-09T14:14:42;17.05;;;6.68;;
63434;SDS011;68814;50.872;5.306;2023-10-09T14:17:14;13.88;;;5.97;;
63434;SDS011;68814;50.872;5.306;2023-10-09T14:19:46;11.93;;;7.05;;
63434;SDS011;68814;50.872;5.306;2023-10-09T14:22:16;12.07;;;6.70;;
63434;SDS011;68814;50.872;5.306;2023-10-09T14:24:46;11.40;;;6.43;;
63434;SDS011;68814;50.872;5.306;2023-10-09T14:27:16;17.35;;;6.60;;
63434;SDS011;68814;50.872;5.306;2023-10-09T14:29:47;14.32;;;6.85;;
63434;SDS011;68814;50.872;5.306;2023-10-09T14:32:14;11.75;;;6.45;;
63434;SDS011;68814;50.872;5.306;2023-10-09T14:34:40;14.32;;;7.50;;
63434;SDS011;68814;50.872;5.306;2023-10-09T14:37:15;16.30;;;6.95;;
63434;SDS011;68814;50.872;5.306;2023-10-09T14:39:44;14.30;;;6.93;;
63434;SDS011;68814;50.872;5.306;2023-10-09T14:42:16;14.50;;;6.70;;
63434;SDS011;68814;50.872;5.306;2023-10-09T14:44:45;13.80;;;6.72;;
63434;SDS011;68814;50.872;5.306;2023-10-09T14:47:11;15.10;;;7.05;;
63434;SDS011;68814;50.872;5.306;2023-10-09T14:49:39;15.35;;;7.00;;
63434;SDS011;68814;50.872;5.306;2023-10-09T14:52:11;15.15;;;6.20;;
63434;SDS011;68814;50.872;5.306;2023-10-09T14:54:41;15.10;;;7.05;;
63434;SDS011;68814;50.872;5.306;2023-10-09T14:57:09;15.07;;;6.82;;
63434;SDS011;68814;50.872;5.306;2023-10-09T14:59:36;14.43;;;6.35;;
63434;SDS011;68814;50.872;5.306;2023-10-09T15:02:02;14.20;;;5.30;;
63434;SDS011;68814;50.872;5.306;2023-10-09T15:04:30;16.20;;;5.95;;
63434;SDS011;68814;50.872;5.306;2023-10-09T15:06:56;15.82;;;5.38;;
63434;SDS011;68814;50.872;5.306;2023-10-09T15:09:22;9.13;;;5.30;;
63434;SDS011;68814;50.872;5.306;2023-10-09T15:11:49;11.88;;;6.18;;
63434;SDS011;68814;50.872;5.306;2023-10-09T15:14:15;14.48;;;6.32;;
63434;SDS011;68814;50.872;5.306;2023-10-09T15:16:43;11.98;;;6.13;;
63434;SDS011;68814;50.872;5.306;2023-10-09T15:19:09;15.20;;;6.50;;
63434;SDS011;68814;50.872;5.306;2023-10-09T15:21:38;13.38;;;6.78;;
63434;SDS011;68814;50.872;5.306;2023-10-09T15:24:10;17.92;;;8.05;;
63434;SDS011;68814;50.872;5.306;2023-10-09T15:26:46;20.17;;;7.80;;
63434;SDS011;68814;50.872;5.306;2023-10-09T15:29:20;13.68;;;7.07;;
63434;SDS011;68814;50.872;5.306;2023-10-09T15:31:54;18.58;;;7.60;;
63434;SDS011;68814;50.872;5.306;2023-10-09T15:34:20;14.30;;;6.38;;
63434;SDS011;68814;50.872;5.306;2023-10-09T15:36:46;16.83;;;6.57;;
63434;SDS011;68814;50.872;5.306;2023-10-09T15:39:13;12.88;;;6.28;;
63434;SDS011;68814;50.872;5.306;2023-10-09T15:41:39;17.10;;;6.30;;
63434;SDS011;68814;50.872;5.306;2023-10-09T15:44:05;16.33;;;6.57;;
63434;SDS011;68814;50.872;5.306;2023-10-09T15:46:31;18.02;;;6.75;;
63434;SDS011;68814;50.872;5.306;2023-10-09T15:49:00;15.75;;;6.50;;
63434;SDS011;68814;50.872;5.306;2023-10-09T15:51:29;13.43;;;6.35;;
63434;SDS011;68814;50.872;5.306;2023-10-09T15:53:55;18.90;;;5.80;;
63434;SDS011;68814;50.872;5.306;2023-10-09T15:56:22;12.55;;;6.82;;
63434;SDS011;68814;50.872;5.306;2023-10-09T15:58:48;11.82;;;6.70;;
63434;SDS011;68814;50.872;5.306;2023-10-09T16:01:14;17.25;;;6.30;;
63434;SDS011;68814;50.872;5.306;2023-10-09T16:03:44;11.07;;;6.20;;
63434;SDS011;68814;50.872;5.306;2023-10-09T16:06:12;15.25;;;6.22;;
63434;SDS011;68814;50.872;5.306;2023-10-09T16:08:41;8.32;;;5.32;;
63434;SDS011;68814;50.872;5.306;2023-10-09T16:11:10;15.70;;;7.10;;
63434;SDS011;68814;50.872;5.306;2023-10-09T16:13:37;13.40;;;6.22;;
63434;SDS011;68814;50.872;5.306;2023-10-09T16:16:04;13.55;;;5.88;;
63434;SDS011;68814;50.872;5.306;2023-10-09T16:18:33;13.50;;;5.93;;
63434;SDS011;68814;50.872;5.306;2023-10-09T16:20:59;14.07;;;6.10;;
63434;SDS011;68814;50.872;5.306;2023-10-09T16:23:29;11.88;;;4.82;;